EGPB - Sumburgh Cape
Distance from station: E 5mi, 14km
Updated: 08/19/2018 10:50am
Few Clouds
Few Clouds
 Wind from NW
Wind: NW 9 mph , 15 km/h
Temperature: 55°F , 13°C
Dew Point: 50°F , 10°C
Humidity: 82%
Barometer: 30 inHg , 1016 hPa
Clouds: Few Clouds
Visibility: 6 miles , 10 km
Cloud details: Few Clouds 1600 ft
2018/08/19 17:50 EGPB 191750Z 31008KT 9999 FEW016 13/10 Q1016